sensor_id;sensor_type;location;lat;lon;timestamp;P1;durP1;ratioP1;P2;durP2;ratioP2
39776;SDS011;25453;48.162;14.510;2022-07-29T00:01:08;3.10;;;1.50;;
39776;SDS011;25453;48.162;14.510;2022-07-29T00:03:45;2.38;;;1.67;;
39776;SDS011;25453;48.162;14.510;2022-07-29T00:06:13;1.88;;;1.40;;
39776;SDS011;25453;48.162;14.510;2022-07-29T00:08:41;1.90;;;1.30;;
39776;SDS011;25453;48.162;14.510;2022-07-29T00:11:09;2.10;;;1.30;;
39776;SDS011;25453;48.162;14.510;2022-07-29T00:13:36;2.55;;;1.55;;
39776;SDS011;25453;48.162;14.510;2022-07-29T00:16:04;2.38;;;1.45;;
39776;SDS011;25453;48.162;14.510;2022-07-29T00:18:32;2.42;;;1.75;;
39776;SDS011;25453;48.162;14.510;2022-07-29T00:20:59;2.13;;;1.40;;
39776;SDS011;25453;48.162;14.510;2022-07-29T00:23:26;2.95;;;1.63;;
39776;SDS011;25453;48.162;14.510;2022-07-29T00:25:56;2.67;;;1.60;;
39776;SDS011;25453;48.162;14.510;2022-07-29T00:28:24;3.20;;;1.80;;
39776;SDS011;25453;48.162;14.510;2022-07-29T00:30:51;2.33;;;1.65;;
39776;SDS011;25453;48.162;14.510;2022-07-29T00:33:19;2.50;;;1.50;;
39776;SDS011;25453;48.162;14.510;2022-07-29T00:35:47;2.08;;;1.70;;
39776;SDS011;25453;48.162;14.510;2022-07-29T00:38:16;3.95;;;2.00;;
39776;SDS011;25453;48.162;14.510;2022-07-29T00:40:44;3.20;;;1.85;;
39776;SDS011;25453;48.162;14.510;2022-07-29T00:43:13;2.47;;;1.70;;
39776;SDS011;25453;48.162;14.510;2022-07-29T00:45:42;3.55;;;2.20;;
39776;SDS011;25453;48.162;14.510;2022-07-29T00:48:11;2.58;;;1.88;;
39776;SDS011;25453;48.162;14.510;2022-07-29T00:50:38;2.40;;;1.73;;
39776;SDS011;25453;48.162;14.510;2022-07-29T00:53:06;3.58;;;2.10;;
39776;SDS011;25453;48.162;14.510;2022-07-29T00:55:36;3.10;;;2.00;;
39776;SDS011;25453;48.162;14.510;2022-07-29T00:58:04;2.90;;;1.80;;
39776;SDS011;25453;48.162;14.510;2022-07-29T01:00:33;2.95;;;1.80;;
39776;SDS011;25453;48.162;14.510;2022-07-29T01:03:00;2.90;;;2.05;;
39776;SDS011;25453;48.162;14.510;2022-07-29T01:05:30;3.45;;;1.90;;
39776;SDS011;25453;48.162;14.510;2022-07-29T01:08:17;2.85;;;1.88;;
39776;SDS011;25453;48.162;14.510;2022-07-29T01:10:45;3.63;;;2.15;;
39776;SDS011;25453;48.162;14.510;2022-07-29T01:13:14;3.38;;;2.13;;
39776;SDS011;25453;48.162;14.510;2022-07-29T01:15:43;2.58;;;2.00;;
39776;SDS011;25453;48.162;14.510;2022-07-29T01:18:18;3.38;;;2.17;;
39776;SDS011;25453;48.162;14.510;2022-07-29T01:24:14;3.78;;;2.42;;
39776;SDS011;25453;48.162;14.510;2022-07-29T01:27:15;4.53;;;2.75;;
39776;SDS011;25453;48.162;14.510;2022-07-29T01:30:02;4.30;;;2.45;;
39776;SDS011;25453;48.162;14.510;2022-07-29T01:32:35;3.17;;;2.30;;
39776;SDS011;25453;48.162;14.510;2022-07-29T01:35:06;3.88;;;2.17;;
39776;SDS011;25453;48.162;14.510;2022-07-29T01:37:43;4.55;;;2.08;;
39776;SDS011;25453;48.162;14.510;2022-07-29T01:40:22;3.78;;;2.35;;
39776;SDS011;25453;48.162;14.510;2022-07-29T01:42:52;3.75;;;2.10;;
39776;SDS011;25453;48.162;14.510;2022-07-29T01:45:25;4.82;;;2.47;;
39776;SDS011;25453;48.162;14.510;2022-07-29T01:53:58;4.05;;;2.35;;
39776;SDS011;25453;48.162;14.510;2022-07-29T01:56:35;3.17;;;2.08;;
39776;SDS011;25453;48.162;14.510;2022-07-29T01:59:04;3.10;;;2.20;;
39776;SDS011;25453;48.162;14.510;2022-07-29T02:01:36;2.80;;;1.88;;
39776;SDS011;25453;48.162;14.510;2022-07-29T02:04:06;3.20;;;2.30;;
39776;SDS011;25453;48.162;14.510;2022-07-29T02:06:52;3.55;;;2.20;;
39776;SDS011;25453;48.162;14.510;2022-07-29T02:09:21;3.65;;;2.25;;
39776;SDS011;25453;48.162;14.510;2022-07-29T02:11:52;2.88;;;1.77;;
39776;SDS011;25453;48.162;14.510;2022-07-29T02:14:22;4.82;;;2.13;;
39776;SDS011;25453;48.162;14.510;2022-07-29T02:16:52;3.47;;;2.40;;
39776;SDS011;25453;48.162;14.510;2022-07-29T02:19:23;4.28;;;2.53;;
39776;SDS011;25453;48.162;14.510;2022-07-29T02:21:55;3.53;;;2.40;;
39776;SDS011;25453;48.162;14.510;2022-07-29T02:24:25;3.45;;;2.00;;
39776;SDS011;25453;48.162;14.510;2022-07-29T02:26:55;3.17;;;2.00;;
39776;SDS011;25453;48.162;14.510;2022-07-29T02:29:26;3.85;;;2.13;;
39776;SDS011;25453;48.162;14.510;2022-07-29T02:31:55;3.38;;;2.20;;
39776;SDS011;25453;48.162;14.510;2022-07-29T02:34:25;3.90;;;2.10;;
39776;SDS011;25453;48.162;14.510;2022-07-29T02:36:54;2.38;;;1.70;;
39776;SDS011;25453;48.162;14.510;2022-07-29T02:39:23;3.47;;;1.80;;
39776;SDS011;25453;48.162;14.510;2022-07-29T02:41:58;3.03;;;2.00;;
39776;SDS011;25453;48.162;14.510;2022-07-29T02:44:30;3.70;;;2.10;;
39776;SDS011;25453;48.162;14.510;2022-07-29T02:50:04;2.88;;;1.92;;
39776;SDS011;25453;48.162;14.510;2022-07-29T02:52:39;2.40;;;1.48;;
39776;SDS011;25453;48.162;14.510;2022-07-29T02:55:16;3.22;;;1.80;;
39776;SDS011;25453;48.162;14.510;2022-07-29T02:58:15;3.65;;;2.03;;
39776;SDS011;25453;48.162;14.510;2022-07-29T03:01:04;3.63;;;1.83;;
39776;SDS011;25453;48.162;14.510;2022-07-29T03:03:48;2.83;;;1.92;;
39776;SDS011;25453;48.162;14.510;2022-07-29T03:06:19;3.50;;;1.90;;
39776;SDS011;25453;48.162;14.510;2022-07-29T03:09:03;3.20;;;1.83;;
39776;SDS011;25453;48.162;14.510;2022-07-29T03:11:38;3.67;;;2.30;;
39776;SDS011;25453;48.162;14.510;2022-07-29T03:14:16;4.57;;;1.90;;
39776;SDS011;25453;48.162;14.510;2022-07-29T03:16:47;3.75;;;2.20;;
39776;SDS011;25453;48.162;14.510;2022-07-29T03:19:16;3.55;;;2.40;;
39776;SDS011;25453;48.162;14.510;2022-07-29T03:21:45;4.05;;;2.75;;
39776;SDS011;25453;48.162;14.510;2022-07-29T03:24:29;3.45;;;2.22;;
39776;SDS011;25453;48.162;14.510;2022-07-29T03:26:59;3.28;;;1.95;;
39776;SDS011;25453;48.162;14.510;2022-07-29T03:29:28;3.75;;;2.35;;
39776;SDS011;25453;48.162;14.510;2022-07-29T03:32:00;3.28;;;1.98;;
39776;SDS011;25453;48.162;14.510;2022-07-29T03:34:34;3.83;;;2.30;;
39776;SDS011;25453;48.162;14.510;2022-07-29T03:37:03;3.55;;;2.13;;
39776;SDS011;25453;48.162;14.510;2022-07-29T03:39:33;2.95;;;1.77;;
39776;SDS011;25453;48.162;14.510;2022-07-29T03:42:07;3.97;;;2.40;;
39776;SDS011;25453;48.162;14.510;2022-07-29T03:44:38;3.83;;;2.63;;
39776;SDS011;25453;48.162;14.510;2022-07-29T03:47:07;5.38;;;2.63;;
39776;SDS011;25453;48.162;14.510;2022-07-29T03:49:37;2.33;;;2.00;;
39776;SDS011;25453;48.162;14.510;2022-07-29T03:52:07;3.38;;;2.20;;
39776;SDS011;25453;48.162;14.510;2022-07-29T03:54:35;2.63;;;1.85;;
39776;SDS011;25453;48.162;14.510;2022-07-29T03:57:04;3.42;;;2.20;;
39776;SDS011;25453;48.162;14.510;2022-07-29T03:59:34;3.60;;;2.13;;
39776;SDS011;25453;48.162;14.510;2022-07-29T04:02:02;3.28;;;2.20;;
39776;SDS011;25453;48.162;14.510;2022-07-29T04:04:32;3.92;;;2.22;;
39776;SDS011;25453;48.162;14.510;2022-07-29T04:07:01;3.05;;;1.75;;
39776;SDS011;25453;48.162;14.510;2022-07-29T04:09:29;3.60;;;2.28;;
39776;SDS011;25453;48.162;14.510;2022-07-29T04:11:57;3.00;;;2.00;;
39776;SDS011;25453;48.162;14.510;2022-07-29T04:14:29;3.63;;;2.17;;
39776;SDS011;25453;48.162;14.510;2022-07-29T04:16:59;3.20;;;1.75;;
39776;SDS011;25453;48.162;14.510;2022-07-29T04:19:28;3.22;;;1.98;;
39776;SDS011;25453;48.162;14.510;2022-07-29T04:21:58;3.58;;;2.25;;
39776;SDS011;25453;48.162;14.510;2022-07-29T04:24:26;2.97;;;1.90;;
39776;SDS011;25453;48.162;14.510;2022-07-29T04:26:54;2.75;;;1.75;;
39776;SDS011;25453;48.162;14.510;2022-07-29T04:29:22;2.42;;;1.77;;
39776;SDS011;25453;48.162;14.510;2022-07-29T04:31:50;2.60;;;1.55;;
39776;SDS011;25453;48.162;14.510;2022-07-29T04:34:18;2.80;;;1.90;;
39776;SDS011;25453;48.162;14.510;2022-07-29T04:36:46;3.60;;;2.13;;
39776;SDS011;25453;48.162;14.510;2022-07-29T04:39:13;3.00;;;1.83;;
39776;SDS011;25453;48.162;14.510;2022-07-29T04:41:48;3.63;;;1.98;;
39776;SDS011;25453;48.162;14.510;2022-07-29T04:44:20;3.55;;;2.00;;
39776;SDS011;25453;48.162;14.510;2022-07-29T04:46:54;2.97;;;1.92;;
39776;SDS011;25453;48.162;14.510;2022-07-29T04:49:21;3.80;;;2.42;;
39776;SDS011;25453;48.162;14.510;2022-07-29T04:51:49;3.80;;;2.22;;
39776;SDS011;25453;48.162;14.510;2022-07-29T04:54:17;3.28;;;2.03;;
39776;SDS011;25453;48.162;14.510;2022-07-29T04:56:45;2.95;;;2.08;;
39776;SDS011;25453;48.162;14.510;2022-07-29T04:59:14;3.40;;;2.10;;
39776;SDS011;25453;48.162;14.510;2022-07-29T05:01:41;4.15;;;2.20;;
39776;SDS011;25453;48.162;14.510;2022-07-29T05:04:09;3.33;;;1.80;;
39776;SDS011;25453;48.162;14.510;2022-07-29T05:06:36;3.50;;;2.03;;
39776;SDS011;25453;48.162;14.510;2022-07-29T05:09:04;2.83;;;1.92;;
39776;SDS011;25453;48.162;14.510;2022-07-29T05:11:31;2.42;;;1.50;;
39776;SDS011;25453;48.162;14.510;2022-07-29T05:13:59;2.85;;;1.55;;
39776;SDS011;25453;48.162;14.510;2022-07-29T05:16:28;2.92;;;1.83;;
39776;SDS011;25453;48.162;14.510;2022-07-29T05:18:55;2.72;;;1.85;;
39776;SDS011;25453;48.162;14.510;2022-07-29T05:21:23;3.22;;;1.85;;
39776;SDS011;25453;48.162;14.510;2022-07-29T05:23:50;2.30;;;1.30;;
39776;SDS011;25453;48.162;14.510;2022-07-29T05:26:18;2.85;;;1.60;;
39776;SDS011;25453;48.162;14.510;2022-07-29T05:28:46;3.03;;;1.60;;
39776;SDS011;25453;48.162;14.510;2022-07-29T05:31:13;2.33;;;1.35;;
39776;SDS011;25453;48.162;14.510;2022-07-29T05:33:44;3.30;;;1.40;;
39776;SDS011;25453;48.162;14.510;2022-07-29T05:36:12;3.22;;;1.75;;
39776;SDS011;25453;48.162;14.510;2022-07-29T05:38:39;2.17;;;1.48;;
39776;SDS011;25453;48.162;14.510;2022-07-29T05:41:08;2.67;;;1.52;;
39776;SDS011;25453;48.162;14.510;2022-07-29T05:43:35;2.55;;;1.85;;
39776;SDS011;25453;48.162;14.510;2022-07-29T05:46:03;2.85;;;1.90;;
39776;SDS011;25453;48.162;14.510;2022-07-29T05:48:30;1.83;;;1.20;;
39776;SDS011;25453;48.162;14.510;2022-07-29T05:50:58;2.15;;;1.30;;
39776;SDS011;25453;48.162;14.510;2022-07-29T05:53:26;2.47;;;1.48;;
39776;SDS011;25453;48.162;14.510;2022-07-29T05:55:55;2.22;;;1.60;;
39776;SDS011;25453;48.162;14.510;2022-07-29T05:58:23;1.98;;;1.27;;
39776;SDS011;25453;48.162;14.510;2022-07-29T06:00:50;1.80;;;1.27;;
39776;SDS011;25453;48.162;14.510;2022-07-29T06:03:18;2.30;;;1.27;;
39776;SDS011;25453;48.162;14.510;2022-07-29T06:05:45;3.20;;;1.70;;
39776;SDS011;25453;48.162;14.510;2022-07-29T06:08:13;2.58;;;1.77;;
39776;SDS011;25453;48.162;14.510;2022-07-29T06:10:40;2.80;;;2.00;;
39776;SDS011;25453;48.162;14.510;2022-07-29T06:13:08;3.20;;;2.17;;
39776;SDS011;25453;48.162;14.510;2022-07-29T06:15:39;2.67;;;1.80;;
39776;SDS011;25453;48.162;14.510;2022-07-29T06:18:06;3.47;;;1.80;;
39776;SDS011;25453;48.162;14.510;2022-07-29T06:20:36;2.33;;;1.52;;
39776;SDS011;25453;48.162;14.510;2022-07-29T06:23:04;3.70;;;1.85;;
39776;SDS011;25453;48.162;14.510;2022-07-29T06:25:31;2.88;;;1.88;;
39776;SDS011;25453;48.162;14.510;2022-07-29T06:28:01;2.30;;;1.60;;
39776;SDS011;25453;48.162;14.510;2022-07-29T06:30:29;3.13;;;1.85;;
39776;SDS011;25453;48.162;14.510;2022-07-29T06:32:56;2.47;;;1.63;;
39776;SDS011;25453;48.162;14.510;2022-07-29T06:35:24;3.30;;;1.88;;
39776;SDS011;25453;48.162;14.510;2022-07-29T06:38:07;2.88;;;1.65;;
39776;SDS011;25453;48.162;14.510;2022-07-29T06:40:56;3.17;;;1.83;;
39776;SDS011;25453;48.162;14.510;2022-07-29T06:43:34;2.97;;;1.83;;
39776;SDS011;25453;48.162;14.510;2022-07-29T06:46:21;2.47;;;1.50;;
39776;SDS011;25453;48.162;14.510;2022-07-29T06:48:50;2.53;;;1.73;;
39776;SDS011;25453;48.162;14.510;2022-07-29T06:51:19;3.00;;;2.15;;
39776;SDS011;25453;48.162;14.510;2022-07-29T06:53:52;3.65;;;2.25;;
39776;SDS011;25453;48.162;14.510;2022-07-29T06:56:28;3.08;;;2.00;;
39776;SDS011;25453;48.162;14.510;2022-07-29T06:59:05;3.05;;;1.98;;
39776;SDS011;25453;48.162;14.510;2022-07-29T07:01:34;2.45;;;1.92;;
39776;SDS011;25453;48.162;14.510;2022-07-29T07:04:04;2.20;;;1.77;;
39776;SDS011;25453;48.162;14.510;2022-07-29T07:06:31;3.20;;;1.77;;
39776;SDS011;25453;48.162;14.510;2022-07-29T07:08:59;3.00;;;1.88;;
39776;SDS011;25453;48.162;14.510;2022-07-29T07:11:27;3.83;;;1.90;;
39776;SDS011;25453;48.162;14.510;2022-07-29T07:13:55;3.22;;;2.13;;
39776;SDS011;25453;48.162;14.510;2022-07-29T07:16:28;1.95;;;1.60;;
39776;SDS011;25453;48.162;14.510;2022-07-29T07:18:56;2.88;;;1.73;;
39776;SDS011;25453;48.162;14.510;2022-07-29T07:21:24;2.35;;;1.52;;
39776;SDS011;25453;48.162;14.510;2022-07-29T07:23:55;3.00;;;1.50;;
39776;SDS011;25453;48.162;14.510;2022-07-29T07:26:24;2.22;;;1.70;;
39776;SDS011;25453;48.162;14.510;2022-07-29T07:28:52;2.58;;;1.95;;
39776;SDS011;25453;48.162;14.510;2022-07-29T07:31:20;3.47;;;1.88;;
39776;SDS011;25453;48.162;14.510;2022-07-29T07:33:47;3.65;;;1.95;;
39776;SDS011;25453;48.162;14.510;2022-07-29T07:36:15;3.75;;;2.10;;
39776;SDS011;25453;48.162;14.510;2022-07-29T07:38:42;3.53;;;2.00;;
39776;SDS011;25453;48.162;14.510;2022-07-29T07:41:10;3.65;;;2.33;;
39776;SDS011;25453;48.162;14.510;2022-07-29T07:43:38;4.50;;;2.42;;
39776;SDS011;25453;48.162;14.510;2022-07-29T07:46:05;3.65;;;2.30;;
39776;SDS011;25453;48.162;14.510;2022-07-29T07:48:33;3.40;;;2.45;;
39776;SDS011;25453;48.162;14.510;2022-07-29T07:51:01;3.72;;;2.42;;
39776;SDS011;25453;48.162;14.510;2022-07-29T07:53:29;4.03;;;2.42;;
39776;SDS011;25453;48.162;14.510;2022-07-29T07:55:57;3.47;;;2.28;;
39776;SDS011;25453;48.162;14.510;2022-07-29T07:58:36;3.20;;;2.05;;
39776;SDS011;25453;48.162;14.510;2022-07-29T08:01:04;3.45;;;2.20;;
39776;SDS011;25453;48.162;14.510;2022-07-29T08:03:32;4.18;;;2.30;;
39776;SDS011;25453;48.162;14.510;2022-07-29T08:06:00;3.95;;;2.20;;
39776;SDS011;25453;48.162;14.510;2022-07-29T08:08:29;3.60;;;2.20;;
39776;SDS011;25453;48.162;14.510;2022-07-29T08:10:56;3.60;;;2.35;;
39776;SDS011;25453;48.162;14.510;2022-07-29T08:13:25;3.50;;;2.33;;
39776;SDS011;25453;48.162;14.510;2022-07-29T08:15:58;3.83;;;2.45;;
39776;SDS011;25453;48.162;14.510;2022-07-29T08:18:29;6.60;;;3.13;;
39776;SDS011;25453;48.162;14.510;2022-07-29T08:20:58;4.65;;;2.83;;
39776;SDS011;25453;48.162;14.510;2022-07-29T08:23:26;4.15;;;2.55;;
39776;SDS011;25453;48.162;14.510;2022-07-29T08:26:15;4.70;;;2.83;;
39776;SDS011;25453;48.162;14.510;2022-07-29T08:28:43;4.03;;;2.45;;
39776;SDS011;25453;48.162;14.510;2022-07-29T08:31:12;4.03;;;2.53;;
39776;SDS011;25453;48.162;14.510;2022-07-29T08:33:42;4.53;;;2.35;;
39776;SDS011;25453;48.162;14.510;2022-07-29T08:36:09;3.50;;;2.55;;
39776;SDS011;25453;48.162;14.510;2022-07-29T08:38:37;5.93;;;2.88;;
39776;SDS011;25453;48.162;14.510;2022-07-29T08:41:05;3.65;;;2.28;;
39776;SDS011;25453;48.162;14.510;2022-07-29T08:43:32;3.25;;;2.17;;
39776;SDS011;25453;48.162;14.510;2022-07-29T08:46:04;4.05;;;2.38;;
39776;SDS011;25453;48.162;14.510;2022-07-29T08:48:32;2.75;;;2.25;;
39776;SDS011;25453;48.162;14.510;2022-07-29T08:51:00;3.13;;;1.83;;
39776;SDS011;25453;48.162;14.510;2022-07-29T08:53:29;3.20;;;2.10;;
39776;SDS011;25453;48.162;14.510;2022-07-29T08:55:58;4.40;;;1.95;;
39776;SDS011;25453;48.162;14.510;2022-07-29T08:58:27;3.08;;;1.70;;
39776;SDS011;25453;48.162;14.510;2022-07-29T09:01:03;3.05;;;1.83;;
39776;SDS011;25453;48.162;14.510;2022-07-29T09:03:33;3.88;;;2.35;;
39776;SDS011;25453;48.162;14.510;2022-07-29T09:06:04;2.70;;;1.92;;
39776;SDS011;25453;48.162;14.510;2022-07-29T09:08:33;4.78;;;2.30;;
39776;SDS011;25453;48.162;14.510;2022-07-29T09:11:03;3.20;;;2.17;;
39776;SDS011;25453;48.162;14.510;2022-07-29T09:13:31;3.03;;;2.08;;
39776;SDS011;25453;48.162;14.510;2022-07-29T09:15:58;4.05;;;2.50;;
39776;SDS011;25453;48.162;14.510;2022-07-29T09:18:41;3.15;;;2.17;;
39776;SDS011;25453;48.162;14.510;2022-07-29T09:21:11;3.50;;;2.30;;
39776;SDS011;25453;48.162;14.510;2022-07-29T09:24:07;3.47;;;2.17;;
39776;SDS011;25453;48.162;14.510;2022-07-29T09:26:37;3.30;;;2.30;;
39776;SDS011;25453;48.162;14.510;2022-07-29T09:29:11;3.17;;;1.77;;
39776;SDS011;25453;48.162;14.510;2022-07-29T09:31:45;3.42;;;2.20;;
39776;SDS011;25453;48.162;14.510;2022-07-29T09:34:14;5.40;;;2.80;;
39776;SDS011;25453;48.162;14.510;2022-07-29T09:36:45;4.32;;;3.05;;
39776;SDS011;25453;48.162;14.510;2022-07-29T09:39:15;4.22;;;3.25;;
39776;SDS011;25453;48.162;14.510;2022-07-29T09:41:54;4.22;;;3.10;;
39776;SDS011;25453;48.162;14.510;2022-07-29T09:44:23;5.03;;;2.90;;
39776;SDS011;25453;48.162;14.510;2022-07-29T09:47:02;5.57;;;3.53;;
39776;SDS011;25453;48.162;14.510;2022-07-29T09:49:35;5.40;;;3.13;;
39776;SDS011;25453;48.162;14.510;2022-07-29T09:52:16;4.72;;;3.08;;
39776;SDS011;25453;48.162;14.510;2022-07-29T09:54:43;3.40;;;2.22;;
39776;SDS011;25453;48.162;14.510;2022-07-29T09:57:26;4.15;;;2.65;;
39776;SDS011;25453;48.162;14.510;2022-07-29T09:59:57;4.07;;;2.50;;
39776;SDS011;25453;48.162;14.510;2022-07-29T10:02:30;2.88;;;2.15;;
39776;SDS011;25453;48.162;14.510;2022-07-29T10:05:00;3.40;;;2.05;;
39776;SDS011;25453;48.162;14.510;2022-07-29T10:07:44;3.17;;;2.08;;
39776;SDS011;25453;48.162;14.510;2022-07-29T10:10:19;3.03;;;1.80;;
39776;SDS011;25453;48.162;14.510;2022-07-29T10:12:58;4.05;;;2.05;;
39776;SDS011;25453;48.162;14.510;2022-07-29T10:15:35;2.28;;;1.25;;
39776;SDS011;25453;48.162;14.510;2022-07-29T10:18:07;3.03;;;1.73;;
39776;SDS011;25453;48.162;14.510;2022-07-29T10:20:36;2.90;;;1.80;;
39776;SDS011;25453;48.162;14.510;2022-07-29T10:23:04;3.15;;;1.98;;
39776;SDS011;25453;48.162;14.510;2022-07-29T10:25:32;3.15;;;2.15;;
39776;SDS011;25453;48.162;14.510;2022-07-29T10:28:00;3.20;;;1.92;;
39776;SDS011;25453;48.162;14.510;2022-07-29T10:30:27;4.05;;;2.25;;
39776;SDS011;25453;48.162;14.510;2022-07-29T10:44:30;5.30;;;3.40;;
39776;SDS011;25453;48.162;14.510;2022-07-29T10:47:00;5.38;;;3.30;;
39776;SDS011;25453;48.162;14.510;2022-07-29T10:49:28;6.47;;;3.10;;
39776;SDS011;25453;48.162;14.510;2022-07-29T10:57:16;4.40;;;2.88;;
39776;SDS011;25453;48.162;14.510;2022-07-29T11:02:43;4.40;;;2.38;;
39776;SDS011;25453;48.162;14.510;2022-07-29T11:05:16;3.70;;;2.00;;
39776;SDS011;25453;48.162;14.510;2022-07-29T11:10:49;3.90;;;2.13;;
39776;SDS011;25453;48.162;14.510;2022-07-29T11:16:18;3.47;;;2.28;;
39776;SDS011;25453;48.162;14.510;2022-07-29T11:21:42;3.50;;;2.50;;
39776;SDS011;25453;48.162;14.510;2022-07-29T11:24:27;2.60;;;1.73;;
39776;SDS011;25453;48.162;14.510;2022-07-29T11:29:49;2.45;;;1.55;;
39776;SDS011;25453;48.162;14.510;2022-07-29T11:32:22;4.07;;;1.77;;
39776;SDS011;25453;48.162;14.510;2022-07-29T11:35:14;2.30;;;1.38;;
39776;SDS011;25453;48.162;14.510;2022-07-29T11:43:56;1.40;;;1.20;;
39776;SDS011;25453;48.162;14.510;2022-07-29T11:46:46;1.40;;;1.00;;
39776;SDS011;25453;48.162;14.510;2022-07-29T11:49:23;2.15;;;1.20;;
39776;SDS011;25453;48.162;14.510;2022-07-29T11:51:58;2.72;;;1.25;;
39776;SDS011;25453;48.162;14.510;2022-07-29T11:54:31;1.83;;;1.10;;
39776;SDS011;25453;48.162;14.510;2022-07-29T11:57:21;1.73;;;1.05;;
39776;SDS011;25453;48.162;14.510;2022-07-29T12:00:06;1.70;;;1.20;;
39776;SDS011;25453;48.162;14.510;2022-07-29T12:02:43;1.63;;;1.10;;
39776;SDS011;25453;48.162;14.510;2022-07-29T12:05:14;1.42;;;1.02;;
39776;SDS011;25453;48.162;14.510;2022-07-29T12:08:09;1.90;;;1.30;;
39776;SDS011;25453;48.162;14.510;2022-07-29T12:10:41;1.95;;;1.30;;
39776;SDS011;25453;48.162;14.510;2022-07-29T12:13:10;2.78;;;2.00;;
39776;SDS011;25453;48.162;14.510;2022-07-29T12:15:38;2.78;;;1.80;;
39776;SDS011;25453;48.162;14.510;2022-07-29T12:18:19;2.90;;;1.70;;
39776;SDS011;25453;48.162;14.510;2022-07-29T12:20:56;2.90;;;1.90;;
39776;SDS011;25453;48.162;14.510;2022-07-29T12:23:29;4.20;;;1.90;;
39776;SDS011;25453;48.162;14.510;2022-07-29T12:26:07;2.67;;;1.85;;
39776;SDS011;25453;48.162;14.510;2022-07-29T12:28:38;6.00;;;2.80;;
39776;SDS011;25453;48.162;14.510;2022-07-29T12:31:05;1.90;;;1.52;;
39776;SDS011;25453;48.162;14.510;2022-07-29T12:34:03;2.22;;;1.52;;
39776;SDS011;25453;48.162;14.510;2022-07-29T12:36:31;2.90;;;1.83;;
39776;SDS011;25453;48.162;14.510;2022-07-29T12:38:59;2.47;;;1.52;;
39776;SDS011;25453;48.162;14.510;2022-07-29T12:41:27;1.67;;;1.20;;
39776;SDS011;25453;48.162;14.510;2022-07-29T12:43:56;2.60;;;1.70;;
39776;SDS011;25453;48.162;14.510;2022-07-29T12:46:23;3.10;;;1.70;;
39776;SDS011;25453;48.162;14.510;2022-07-29T12:48:51;2.13;;;1.63;;
39776;SDS011;25453;48.162;14.510;2022-07-29T12:51:33;2.45;;;1.30;;
39776;SDS011;25453;48.162;14.510;2022-07-29T12:54:10;2.50;;;1.17;;
39776;SDS011;25453;48.162;14.510;2022-07-29T12:56:40;1.83;;;1.13;;
39776;SDS011;25453;48.162;14.510;2022-07-29T12:59:20;2.35;;;1.27;;
39776;SDS011;25453;48.162;14.510;2022-07-29T13:01:50;2.50;;;1.40;;
39776;SDS011;25453;48.162;14.510;2022-07-29T13:04:29;2.90;;;1.70;;
39776;SDS011;25453;48.162;14.510;2022-07-29T13:06:58;2.80;;;1.40;;
39776;SDS011;25453;48.162;14.510;2022-07-29T13:09:40;3.35;;;1.90;;
39776;SDS011;25453;48.162;14.510;2022-07-29T13:12:15;3.50;;;2.00;;
39776;SDS011;25453;48.162;14.510;2022-07-29T13:14:46;1.98;;;1.38;;
39776;SDS011;25453;48.162;14.510;2022-07-29T13:19:51;2.03;;;1.33;;
39776;SDS011;25453;48.162;14.510;2022-07-29T13:22:34;2.17;;;1.38;;
39776;SDS011;25453;48.162;14.510;2022-07-29T13:25:02;2.22;;;1.50;;
39776;SDS011;25453;48.162;14.510;2022-07-29T13:27:30;1.83;;;1.20;;
39776;SDS011;25453;48.162;14.510;2022-07-29T13:30:06;1.60;;;1.02;;
39776;SDS011;25453;48.162;14.510;2022-07-29T13:32:35;1.40;;;1.10;;
39776;SDS011;25453;48.162;14.510;2022-07-29T13:35:05;2.30;;;1.35;;
39776;SDS011;25453;48.162;14.510;2022-07-29T13:37:35;2.00;;;1.10;;
39776;SDS011;25453;48.162;14.510;2022-07-29T13:40:05;1.95;;;1.23;;
39776;SDS011;25453;48.162;14.510;2022-07-29T13:42:34;2.17;;;1.20;;
39776;SDS011;25453;48.162;14.510;2022-07-29T13:45:03;1.88;;;1.35;;
39776;SDS011;25453;48.162;14.510;2022-07-29T13:47:31;1.98;;;1.20;;
39776;SDS011;25453;48.162;14.510;2022-07-29T13:49:59;2.35;;;1.30;;
39776;SDS011;25453;48.162;14.510;2022-07-29T13:52:28;2.05;;;1.23;;
39776;SDS011;25453;48.162;14.510;2022-07-29T13:54:56;2.03;;;1.40;;
39776;SDS011;25453;48.162;14.510;2022-07-29T13:57:27;1.40;;;1.15;;
39776;SDS011;25453;48.162;14.510;2022-07-29T13:59:56;1.55;;;0.90;;
39776;SDS011;25453;48.162;14.510;2022-07-29T14:02:24;1.65;;;1.05;;
39776;SDS011;25453;48.162;14.510;2022-07-29T14:04:52;1.42;;;1.17;;
39776;SDS011;25453;48.162;14.510;2022-07-29T14:07:22;1.70;;;1.30;;
39776;SDS011;25453;48.162;14.510;2022-07-29T14:09:50;2.53;;;1.40;;
39776;SDS011;25453;48.162;14.510;2022-07-29T14:12:18;2.25;;;1.45;;
39776;SDS011;25453;48.162;14.510;2022-07-29T14:14:46;2.40;;;1.48;;
39776;SDS011;25453;48.162;14.510;2022-07-29T14:17:14;2.63;;;1.50;;
39776;SDS011;25453;48.162;14.510;2022-07-29T14:19:42;1.38;;;1.00;;
39776;SDS011;25453;48.162;14.510;2022-07-29T14:22:11;2.33;;;1.70;;
39776;SDS011;25453;48.162;14.510;2022-07-29T14:24:39;2.15;;;1.52;;
39776;SDS011;25453;48.162;14.510;2022-07-29T14:27:08;4.30;;;2.35;;
39776;SDS011;25453;48.162;14.510;2022-07-29T14:29:35;3.00;;;2.00;;
39776;SDS011;25453;48.162;14.510;2022-07-29T14:32:05;1.92;;;1.60;;
39776;SDS011;25453;48.162;14.510;2022-07-29T14:34:34;3.17;;;1.77;;
39776;SDS011;25453;48.162;14.510;2022-07-29T14:37:03;2.75;;;1.70;;
39776;SDS011;25453;48.162;14.510;2022-07-29T14:39:32;1.95;;;1.27;;
39776;SDS011;25453;48.162;14.510;2022-07-29T14:42:08;2.25;;;1.52;;
39776;SDS011;25453;48.162;14.510;2022-07-29T14:44:38;2.35;;;1.55;;
39776;SDS011;25453;48.162;14.510;2022-07-29T14:47:10;2.63;;;1.45;;
39776;SDS011;25453;48.162;14.510;2022-07-29T14:49:37;2.53;;;1.58;;
39776;SDS011;25453;48.162;14.510;2022-07-29T14:52:05;2.00;;;1.30;;
39776;SDS011;25453;48.162;14.510;2022-07-29T14:54:32;2.30;;;1.40;;
39776;SDS011;25453;48.162;14.510;2022-07-29T14:57:00;2.00;;;1.23;;
39776;SDS011;25453;48.162;14.510;2022-07-29T14:59:28;1.85;;;1.35;;
39776;SDS011;25453;48.162;14.510;2022-07-29T15:01:55;2.05;;;1.20;;
39776;SDS011;25453;48.162;14.510;2022-07-29T15:04:23;2.28;;;1.33;;
39776;SDS011;25453;48.162;14.510;2022-07-29T15:06:51;2.08;;;1.27;;
39776;SDS011;25453;48.162;14.510;2022-07-29T15:09:19;1.73;;;1.25;;
39776;SDS011;25453;48.162;14.510;2022-07-29T15:11:47;2.17;;;1.20;;
39776;SDS011;25453;48.162;14.510;2022-07-29T15:14:14;2.47;;;1.55;;
39776;SDS011;25453;48.162;14.510;2022-07-29T15:16:45;2.03;;;1.42;;
39776;SDS011;25453;48.162;14.510;2022-07-29T15:19:13;1.83;;;1.10;;
39776;SDS011;25453;48.162;14.510;2022-07-29T15:21:40;1.50;;;1.10;;
39776;SDS011;25453;48.162;14.510;2022-07-29T15:24:14;1.45;;;1.17;;
39776;SDS011;25453;48.162;14.510;2022-07-29T15:26:45;2.33;;;1.50;;
39776;SDS011;25453;48.162;14.510;2022-07-29T15:29:13;1.90;;;1.60;;
39776;SDS011;25453;48.162;14.510;2022-07-29T15:31:42;3.85;;;2.40;;
39776;SDS011;25453;48.162;14.510;2022-07-29T15:34:11;5.15;;;2.22;;
39776;SDS011;25453;48.162;14.510;2022-07-29T15:36:41;3.13;;;2.30;;
39776;SDS011;25453;48.162;14.510;2022-07-29T15:39:19;3.70;;;2.25;;
39776;SDS011;25453;48.162;14.510;2022-07-29T15:41:47;4.45;;;2.47;;
39776;SDS011;25453;48.162;14.510;2022-07-29T15:44:16;3.90;;;2.70;;
39776;SDS011;25453;48.162;14.510;2022-07-29T15:46:43;3.65;;;2.40;;
39776;SDS011;25453;48.162;14.510;2022-07-29T15:49:30;4.25;;;2.78;;